Briefing drone pour Cran-gevrier

Rechercher une autre localisation

Conditions de vol :


Nous sommes le : Samedi 02 juillet 2022
Il est 23:36 UTC (01:36 LT)

Lever de soleil : 03:23 UTC (05:23 LT)
Coucher de soleil : 19:55 UTC (21:55 LT)

Météo

L'essentiel des conditions de vol

VIGILANCE MÉTÉO FRANCE - Haute-Savoie (74)
Pas de vigilances particulieres
CARTE TEMSI
CARTES DES FRONTS
METAR de LFLP
LFLP 012330Z AUTO 05003KT CAVOK 14/11 Q1022

Date d'émission: 01/07/2022
Heure d'émission: 23:30 UTC
Vent: 050° pour 3 KT (6 km/h)
Visibilité horizontale: > 10 km
Plafond : Plafond et visibilité OK (CAVOK)
Température: 14 °C
Point de rosée: 11 °C
Humidité: 82%
Pression (QNH): 1022 hPa
TAF de LFLP
AMD LFLP 011909Z 0119/0215 CNL

Conditions prévues :

Heure d'émission : Bulletin éffectué le 01 à 19:00 UTC
Prévision : Valide du 01 a 19:00 UTC au 02 a 15:00 UTC
Nuages : à 0ft (0 m)
WEBCAM POUR CRAN-GEVRIER

Réglementation

Voler en sécurité

CARTES AERONAUTIQUE 1/500.000
CARTES VAC (LFLP)
SUP AIP




Chargement des AIP...
NOTAM (CRAN-GEVRIER + Terrain à proximité / FIR )




Chargement des NOTAMS...
CONTACT PREFECTURE 74


Avertissement : Les données mises à disposition sont indicatives. Oxygène Drone ne pourra être tenu responsable de dégâts causés aux biens et aux personnes.